»·PEaware :: N276ND KPDX-KSEA

N276ND :: KPDX-KSEA

FLIGHT INFORMATION

Flight Status: Arrived
Operator: Privately registered:
United States
More flights under this callsign
Pilot: Giorgi S. (28323)
Aircraft: MOONEY M-20 201 202 205 220 ATS MSE
(M20P)
More flights by this aircraft type
Origin: KPDX Portland Intl
United States
Destination: KSEA Seattle-Tacoma Intl
United States
More flights between these airports :: More routes between these airports
Route: +BTG OLM
File this flight plan on PilotEdge
Remarks:
Altitude:
(Current/Filed)
5,000ft
Speed:
(Current/Filed)
160kts
Departed: 21-Mar-20 04:14 PM
Arrived: 21-Mar-20 05:10 PM
Distance/Time
Traveled:
112nm/0:56
Distance/Time
To Go:
Arrived

Flight Plot

Page will automatically refresh every two minutes.

Flight plan parsing failed; only flown route is shown


Map Options




Map Legend


Flown Route
Filed Route
Departure Airport
Arrival Airport
Navaid (VOR, NDB)
Fix

Horizontal Profiles

Position Reports

Time Latitude Longitude Heading Altitude Ground
Speed
21-Mar-20 15:48 45.587612 -122.584013 210 19ft 0kts
21-Mar-20 15:49 45.587612 -122.584013 210 19ft 0kts
21-Mar-20 15:50 45.587612 -122.584013 210 19ft 0kts
21-Mar-20 15:51 45.587612 -122.584013 210 19ft 0kts
21-Mar-20 15:52 45.587612 -122.584013 210 19ft 0kts
21-Mar-20 15:53 45.587612 -122.584013 210 19ft 0kts
21-Mar-20 15:54 45.587612 -122.584013 210 19ft 0kts
21-Mar-20 15:55 45.587612 -122.584013 210 19ft 0kts
21-Mar-20 15:56 45.587612 -122.584013 210 19ft 0kts
21-Mar-20 15:57 45.587612 -122.584013 210 19ft 0kts
21-Mar-20 15:58 45.587612 -122.584013 210 19ft 0kts
21-Mar-20 15:59 45.587612 -122.584013 210 19ft 0kts
21-Mar-20 16:00 45.587612 -122.584013 210 19ft 0kts
21-Mar-20 16:01 45.587612 -122.584013 210 19ft 0kts
21-Mar-20 16:02 45.587612 -122.584013 210 19ft 0kts
21-Mar-20 16:03 45.587612 -122.584013 210 19ft 0kts
21-Mar-20 16:04 45.587612 -122.584013 210 19ft 0kts
21-Mar-20 16:05 45.587612 -122.584013 210 19ft 0kts
21-Mar-20 16:06 45.587612 -122.584013 210 19ft 0kts
21-Mar-20 16:07 45.587599 -122.584022 204 19ft 0kts
21-Mar-20 16:08 45.588613 -122.583041 313 19ft 4kts
21-Mar-20 16:09 45.589193 -122.584436 295 19ft 7kts
21-Mar-20 16:10 45.590842 -122.588772 300 19ft 19kts
21-Mar-20 16:11 45.593622 -122.595853 312 22ft 10kts
21-Mar-20 16:12 45.593917 -122.596077 15 22ft 0kts
21-Mar-20 16:13 45.589497 -122.581749 118 148ft 79kts
21-Mar-20 16:14 45.578227 -122.553497 118 701ft 89kts
21-Mar-20 16:15 45.565420 -122.521769 117 1520ft 93kts
21-Mar-20 16:16 45.552353 -122.490349 117 2326ft 91kts
21-Mar-20 16:17 45.539113 -122.459231 118 3009ft 100kts
21-Mar-20 16:18 45.523016 -122.412888 84 3023ft 155kts
21-Mar-20 16:19 45.555173 -122.410349 340 3427ft 152kts
21-Mar-20 16:20 45.590014 -122.441781 325 4047ft 140kts
21-Mar-20 16:21 45.620372 -122.470591 326 4832ft 123kts
21-Mar-20 16:22 45.651349 -122.499941 325 5022ft 149kts
21-Mar-20 16:23 45.687665 -122.534272 325 5019ft 161kts
21-Mar-20 16:24 45.725629 -122.570368 323 5019ft 165kts
21-Mar-20 16:25 45.767148 -122.595962 348 5019ft 166kts
21-Mar-20 16:26 45.812675 -122.607498 347 5016ft 165kts
21-Mar-20 16:27 45.857860 -122.618831 348 5013ft 164kts
21-Mar-20 16:28 45.902687 -122.630001 349 5010ft 163kts
21-Mar-20 16:29 45.947226 -122.641087 349 5010ft 162kts
21-Mar-20 16:30 45.991880 -122.652223 349 5015ft 163kts
21-Mar-20 16:31 46.036620 -122.663352 350 5020ft 163kts
21-Mar-20 16:32 46.081548 -122.674626 349 5026ft 164kts
21-Mar-20 16:33 46.126649 -122.685951 350 5027ft 165kts
21-Mar-20 16:34 46.171979 -122.697344 350 5027ft 165kts
21-Mar-20 16:35 46.217181 -122.708735 350 5027ft 165kts
21-Mar-20 16:36 46.262543 -122.720183 350 5027ft 165kts
21-Mar-20 16:37 46.307896 -122.731649 350 5027ft 165kts
21-Mar-20 16:38 46.353250 -122.743134 350 5027ft 165kts
21-Mar-20 16:39 46.398747 -122.754527 348 5005ft 166kts
21-Mar-20 16:40 46.444126 -122.766202 348 4997ft 165kts
21-Mar-20 16:41 46.489296 -122.777694 348 4986ft 164kts
21-Mar-20 16:42 46.534161 -122.789152 349 4983ft 163kts
21-Mar-20 16:43 46.578699 -122.800516 349 4981ft 162kts
21-Mar-20 16:44 46.622992 -122.811846 349 4981ft 161kts
21-Mar-20 16:45 46.667196 -122.823139 349 4981ft 161kts
21-Mar-20 16:46 46.711319 -122.834488 349 4981ft 161kts
21-Mar-20 16:47 46.755486 -122.845840 349 4985ft 161kts
21-Mar-20 16:48 46.799622 -122.857213 349 4993ft 160kts
21-Mar-20 16:49 46.843595 -122.868557 350 5000ft 160kts
21-Mar-20 16:50 46.887569 -122.879917 350 5007ft 160kts
21-Mar-20 16:51 46.931413 -122.891251 350 5007ft 160kts
21-Mar-20 16:52 46.974633 -122.896471 38 5012ft 161kts
21-Mar-20 16:53 47.009525 -122.854775 36 5006ft 162kts
21-Mar-20 16:54 47.044283 -122.812805 36 5005ft 162kts
21-Mar-20 16:55 47.079136 -122.770242 35 5005ft 163kts
21-Mar-20 16:56 47.114394 -122.727110 35 5009ft 166kts
21-Mar-20 16:57 47.150417 -122.682872 36 5012ft 171kts
21-Mar-20 16:58 47.187427 -122.637346 38 5016ft 175kts
21-Mar-20 16:59 47.224830 -122.591145 37 5014ft 168kts
21-Mar-20 17:00 47.257074 -122.551305 36 5013ft 140kts
21-Mar-20 17:01 47.286306 -122.515148 35 5014ft 135kts
21-Mar-20 17:02 47.315374 -122.479132 35 5014ft 139kts
21-Mar-20 17:03 47.345339 -122.441937 35 5012ft 142kts
21-Mar-20 17:04 47.375692 -122.404188 35 5011ft 143kts
21-Mar-20 17:05 47.412188 -122.370127 13 3685ft 170kts
21-Mar-20 17:06 47.454118 -122.358679 7 1929ft 125kts
21-Mar-20 17:07 47.475620 -122.340526 74 1197ft 86kts
21-Mar-20 17:08 47.465710 -122.317757 186 458ft 89kts
21-Mar-20 17:09 47.451647 -122.317958 177 361ft 10kts
21-Mar-20 17:10 47.448517 -122.317130 154 370ft 11kts
21-Mar-20 17:11 47.447949 -122.316702 150 371ft 0kts
21-Mar-20 17:12 47.447949 -122.316702 150 371ft 0kts
21-Mar-20 17:13 47.446464 -122.313684 94 380ft 12kts
21-Mar-20 17:14 47.444819 -122.309602 152 383ft 24kts
21-Mar-20 17:15 47.444279 -122.305977 25 385ft 9kts
21-Mar-20 17:16 47.445584 -122.304922 271 389ft 0kts
21-Mar-20 17:17 47.445584 -122.304922 271 389ft 0kts

Navigation Log

Ident Type
Flight plan parsing failed, navigation log unavailable